Time;durP1;ratioP1;P1;durP2;ratioP2;P2;SDS_P1;SDS_P2;PMS_P1;PMS_P2;Temp;Humidity;BMP_temperature;BMP_pressure;BME280_temperature;BME280_humidity;BME280_pressure;Samples;Min_cycle;Max_cycle;Signal;HPM_P1;HPM_P2
2023/12/12 00:02:12;;;;;;;3.83;1.10;;;;;;;;;;5013024;28;20508;-83
2023/12/12 00:04:38;;;;;;;3.45;1.30;;;;;;;;;;5012580;28;20018;-83
2023/12/12 00:07:04;;;;;;;4.93;1.35;;;;;;;;;;5009140;28;20057;-83
2023/12/12 00:09:30;;;;;;;6.47;2.08;;;;;;;;;;5024786;28;20025;-83
2023/12/12 00:11:56;;;;;;;2.63;1.60;;;;;;;;;;5029750;28;20068;-83
2023/12/12 00:14:22;;;;;;;5.63;1.60;;;;;;;;;;5028456;28;20056;-83
2023/12/12 00:16:48;;;;;;;4.70;1.90;;;;;;;;;;5013042;28;20061;-83
2023/12/12 00:19:14;;;;;;;3.90;1.40;;;;;;;;;;5024646;28;20382;-83
2023/12/12 00:21:40;;;;;;;3.97;2.17;;;;;;;;;;5019237;28;20014;-83
2023/12/12 00:24:06;;;;;;;2.22;1.52;;;;;;;;;;5017683;28;20021;-83
2023/12/12 00:26:32;;;;;;;4.35;1.30;;;;;;;;;;5018381;28;20021;-83
2023/12/12 00:28:58;;;;;;;2.22;1.30;;;;;;;;;;5016416;28;20363;-83
2023/12/12 00:31:24;;;;;;;4.00;1.00;;;;;;;;;;5015546;28;20017;-83
2023/12/12 00:33:50;;;;;;;2.70;0.90;;;;;;;;;;5028108;28;20021;-82
2023/12/12 00:36:16;;;;;;;3.40;1.10;;;;;;;;;;5014354;28;20018;-83
2023/12/12 00:38:42;;;;;;;6.00;1.00;;;;;;;;;;5014058;28;20029;-83
2023/12/12 00:41:08;;;;;;;1.90;0.90;;;;;;;;;;5028442;28;20362;-84
2023/12/12 00:43:34;;;;;;;2.72;1.17;;;;;;;;;;5015337;28;20026;-83
2023/12/12 00:46:00;;;;;;;3.90;1.92;;;;;;;;;;5015629;28;20381;-83
2023/12/12 00:48:26;;;;;;;6.00;2.05;;;;;;;;;;5020162;28;20022;-83
2023/12/12 00:50:52;;;;;;;3.53;1.85;;;;;;;;;;5020358;28;20013;-83
2023/12/12 00:53:18;;;;;;;5.32;1.45;;;;;;;;;;5018272;28;20028;-83
2023/12/12 00:55:44;;;;;;;1.70;1.00;;;;;;;;;;5017179;28;20021;-83
2023/12/12 00:58:10;;;;;;;2.55;0.98;;;;;;;;;;5023870;28;20100;-83
2023/12/12 01:00:36;;;;;;;4.38;1.00;;;;;;;;;;5016154;28;20014;-83
2023/12/12 01:03:02;;;;;;;7.00;1.05;;;;;;;;;;5017999;28;20020;-83
2023/12/12 01:05:28;;;;;;;2.20;0.80;;;;;;;;;;5028506;28;20022;-83
2023/12/12 01:07:54;;;;;;;2.50;1.00;;;;;;;;;;5013980;28;20025;-83
2023/12/12 01:10:21;;;;;;;4.30;1.00;;;;;;;;;;5011313;28;20045;-83
2023/12/12 01:12:47;;;;;;;5.55;1.58;;;;;;;;;;5027246;28;20055;-83
2023/12/12 01:15:13;;;;;;;7.15;1.13;;;;;;;;;;5017019;28;20018;-83
2023/12/12 01:17:39;;;;;;;4.90;1.25;;;;;;;;;;5016679;28;20068;-83
2023/12/12 01:20:07;;;;;;;8.57;1.20;;;;;;;;;;5009376;28;20021;-83
2023/12/12 01:22:33;;;;;;;4.20;1.17;;;;;;;;;;5017423;28;20381;-83
2023/12/12 01:24:59;;;;;;;4.22;1.30;;;;;;;;;;5019252;28;20421;-83
2023/12/12 01:27:25;;;;;;;4.47;1.02;;;;;;;;;;5021048;28;20113;-83
2023/12/12 01:29:51;;;;;;;5.50;1.45;;;;;;;;;;5027916;28;20260;-83
2023/12/12 01:32:17;;;;;;;4.63;1.10;;;;;;;;;;5022084;28;20015;-83
2023/12/12 01:34:43;;;;;;;4.28;1.02;;;;;;;;;;5009905;28;20018;-83
2023/12/12 01:37:09;;;;;;;2.72;1.10;;;;;;;;;;5017371;28;20021;-83
2023/12/12 01:39:35;;;;;;;5.72;1.30;;;;;;;;;;5028875;28;20017;-82
2023/12/12 01:42:01;;;;;;;6.95;1.20;;;;;;;;;;5016690;28;20475;-83
2023/12/12 01:44:27;;;;;;;4.05;1.10;;;;;;;;;;5029488;28;20018;-83
2023/12/12 01:46:53;;;;;;;4.60;1.38;;;;;;;;;;5016408;28;20018;-83
2023/12/12 01:49:20;;;;;;;4.75;1.38;;;;;;;;;;5028111;28;20022;-83
2023/12/12 01:51:46;;;;;;;4.82;1.20;;;;;;;;;;5027014;28;20018;-83
2023/12/12 01:54:13;;;;;;;5.10;1.10;;;;;;;;;;5023277;28;20010;-83
2023/12/12 01:56:39;;;;;;;3.05;1.35;;;;;;;;;;5013578;28;20109;-83
2023/12/12 01:59:05;;;;;;;7.03;1.30;;;;;;;;;;5013897;28;20038;-83
2023/12/12 02:01:31;;;;;;;35.45;10.25;;;;;;;;;;5012037;28;20018;-83
2023/12/12 02:03:58;;;;;;;88.57;21.20;;;;;;;;;;5024414;28;20025;-83
2023/12/12 02:06:24;;;;;;;47.58;12.07;;;;;;;;;;5031782;28;20116;-83
2023/12/12 02:08:51;;;;;;;75.93;20.63;;;;;;;;;;5024445;28;20035;-82
2023/12/12 02:11:17;;;;;;;99.20;27.25;;;;;;;;;;5022814;28;20212;-83
2023/12/12 02:13:43;;;;;;;22.17;4.13;;;;;;;;;;5016509;28;20425;-82
2023/12/12 02:16:09;;;;;;;5.55;1.65;;;;;;;;;;5010886;28;20041;-82
2023/12/12 02:18:36;;;;;;;8.30;1.75;;;;;;;;;;5018767;28;20024;-83
2023/12/12 02:21:03;;;;;;;8.73;1.98;;;;;;;;;;5032730;28;20049;-83
2023/12/12 02:23:30;;;;;;;7.03;1.65;;;;;;;;;;5028251;28;20049;-83
2023/12/12 02:25:56;;;;;;;3.60;1.52;;;;;;;;;;5031043;28;20030;-83
2023/12/12 02:28:23;;;;;;;8.75;1.60;;;;;;;;;;5020012;28;20060;-83
2023/12/12 02:30:49;;;;;;;2.83;1.60;;;;;;;;;;5014397;28;20387;-83
2023/12/12 02:33:15;;;;;;;7.40;1.50;;;;;;;;;;5020162;28;20010;-82
2023/12/12 02:35:41;;;;;;;8.10;1.50;;;;;;;;;;5013463;28;20022;-82
2023/12/12 02:38:07;;;;;;;5.35;1.83;;;;;;;;;;5024297;28;20426;-82
2023/12/12 02:40:33;;;;;;;9.70;2.70;;;;;;;;;;5025176;28;20014;-84
2023/12/12 02:42:59;;;;;;;7.63;2.40;;;;;;;;;;5023970;28;20117;-83
2023/12/12 02:45:25;;;;;;;8.07;2.17;;;;;;;;;;5029745;28;20026;-82
2023/12/12 02:47:51;;;;;;;7.53;2.28;;;;;;;;;;5011518;28;20018;-83
2023/12/12 02:50:18;;;;;;;7.85;2.45;;;;;;;;;;5026965;28;20045;-83
2023/12/12 02:52:44;;;;;;;5.55;2.70;;;;;;;;;;5023089;28;20022;-83
2023/12/12 02:55:10;;;;;;;8.18;2.85;;;;;;;;;;5028673;28;20021;-83
2023/12/12 02:57:36;;;;;;;6.95;2.53;;;;;;;;;;5030603;28;20203;-83
2023/12/12 03:00:03;;;;;;;10.55;3.33;;;;;;;;;;5016448;28;20025;-83
2023/12/12 03:02:30;;;;;;;6.28;3.28;;;;;;;;;;5017184;28;20481;-82
2023/12/12 03:04:57;;;;;;;10.32;3.08;;;;;;;;;;5015587;28;20030;-83
2023/12/12 03:07:23;;;;;;;9.48;3.22;;;;;;;;;;5023919;28;20362;-83
2023/12/12 03:09:49;;;;;;;9.98;3.53;;;;;;;;;;5012990;28;20013;-83
2023/12/12 03:12:15;;;;;;;9.98;3.63;;;;;;;;;;5012603;28;20470;-83
2023/12/12 03:14:41;;;;;;;6.38;3.15;;;;;;;;;;5027813;28;20018;-82
2023/12/12 03:17:07;;;;;;;9.55;3.20;;;;;;;;;;5017984;28;20038;-83
2023/12/12 03:19:34;;;;;;;10.48;4.10;;;;;;;;;;5019720;28;20013;-83
2023/12/12 03:22:00;;;;;;;7.95;3.78;;;;;;;;;;5030126;28;20469;-83
2023/12/12 03:24:26;;;;;;;10.23;4.20;;;;;;;;;;5025592;28;20072;-84
2023/12/12 03:26:52;;;;;;;13.18;4.70;;;;;;;;;;5022563;28;20010;-83
2023/12/12 03:29:18;;;;;;;12.85;4.47;;;;;;;;;;5016966;28;20658;-83
2023/12/12 03:31:44;;;;;;;10.95;4.07;;;;;;;;;;5012668;28;20039;-83
2023/12/12 03:34:10;;;;;;;13.60;4.78;;;;;;;;;;5014571;28;20096;-83
2023/12/12 03:36:36;;;;;;;13.60;3.95;;;;;;;;;;5019535;28;20274;-82
2023/12/12 03:39:02;;;;;;;10.65;4.45;;;;;;;;;;5027710;28;20018;-83
2023/12/12 03:41:29;;;;;;;11.90;4.60;;;;;;;;;;5017633;28;20018;-83
2023/12/12 03:43:55;;;;;;;14.80;4.20;;;;;;;;;;5029763;28;20071;-83
2023/12/12 03:46:21;;;;;;;12.75;4.43;;;;;;;;;;5025440;28;20025;-83
2023/12/12 03:48:47;;;;;;;11.05;4.28;;;;;;;;;;5016518;28;20068;-83
2023/12/12 03:51:13;;;;;;;12.07;4.70;;;;;;;;;;5024202;28;20227;-83
2023/12/12 03:53:39;;;;;;;18.67;4.93;;;;;;;;;;5020488;28;20017;-83
2023/12/12 03:56:06;;;;;;;17.83;5.22;;;;;;;;;;5026807;28;20014;-83
2023/12/12 03:58:32;;;;;;;18.52;6.05;;;;;;;;;;5015714;28;20089;-83
2023/12/12 04:00:58;;;;;;;17.92;4.78;;;;;;;;;;5026899;28;20185;-83
2023/12/12 04:03:24;;;;;;;19.27;5.70;;;;;;;;;;5029438;28;20013;-82
2023/12/12 04:05:50;;;;;;;16.05;5.63;;;;;;;;;;5021846;28;20611;-83
2023/12/12 04:08:16;;;;;;;14.90;5.47;;;;;;;;;;5028213;28;20017;-82
2023/12/12 04:10:42;;;;;;;20.00;6.03;;;;;;;;;;5028461;28;20026;-83
2023/12/12 04:13:08;;;;;;;19.55;6.22;;;;;;;;;;5027714;28;20643;-83
2023/12/12 04:15:34;;;;;;;14.52;6.13;;;;;;;;;;5024861;28;20032;-83
2023/12/12 04:18:00;;;;;;;15.10;6.07;;;;;;;;;;5016418;28;20097;-83
2023/12/12 04:20:26;;;;;;;24.33;7.25;;;;;;;;;;5018823;28;20033;-83
2023/12/12 04:22:52;;;;;;;23.70;7.40;;;;;;;;;;5018971;28;20025;-83
2023/12/12 04:25:19;;;;;;;27.45;7.80;;;;;;;;;;5014486;28;20042;-83
2023/12/12 04:27:45;;;;;;;30.67;8.25;;;;;;;;;;5020412;28;20025;-82
2023/12/12 04:30:12;;;;;;;29.13;8.88;;;;;;;;;;5018175;28;20037;-82
2023/12/12 04:32:38;;;;;;;50.60;11.02;;;;;;;;;;5011835;28;20032;-82
2023/12/12 04:35:10;;;;;;;30.77;9.48;;;;;;;;;;5011273;28;20420;-83
2023/12/12 04:37:36;;;;;;;29.42;9.10;;;;;;;;;;5016115;28;20022;-83
2023/12/12 04:40:02;;;;;;;30.42;8.23;;;;;;;;;;5017569;28;20469;-83
2023/12/12 04:42:28;;;;;;;36.25;9.60;;;;;;;;;;5022949;28;20114;-83
2023/12/12 04:44:55;;;;;;;36.22;9.80;;;;;;;;;;5026329;28;20547;-82
2023/12/12 04:47:21;;;;;;;33.92;9.20;;;;;;;;;;5019489;28;20010;-82
2023/12/12 04:49:47;;;;;;;33.95;9.63;;;;;;;;;;5025951;28;20013;-82
2023/12/12 04:52:13;;;;;;;39.22;10.45;;;;;;;;;;5020842;28;20036;-83
2023/12/12 04:54:39;;;;;;;41.05;10.43;;;;;;;;;;5025831;28;20474;-83
2023/12/12 04:57:05;;;;;;;52.97;11.18;;;;;;;;;;5010096;28;20109;-83
2023/12/12 04:59:31;;;;;;;66.70;12.02;;;;;;;;;;5020544;28;20009;-83
2023/12/12 05:01:57;;;;;;;41.60;10.93;;;;;;;;;;5027425;28;20362;-83
2023/12/12 05:04:23;;;;;;;43.08;10.90;;;;;;;;;;5009172;28;20208;-81
2023/12/12 05:06:49;;;;;;;44.28;11.40;;;;;;;;;;5022409;28;20447;-82
2023/12/12 05:09:17;;;;;;;44.75;10.82;;;;;;;;;;5019544;28;20022;-82
2023/12/12 05:11:43;;;;;;;43.88;10.32;;;;;;;;;;5030825;28;20079;-81
2023/12/12 05:14:10;;;;;;;39.67;10.68;;;;;;;;;;5018559;28;20541;-79
2023/12/12 05:16:37;;;;;;;43.40;10.43;;;;;;;;;;5025424;28;20041;-80
2023/12/12 05:19:03;;;;;;;56.50;12.63;;;;;;;;;;5019275;28;20018;-76
2023/12/12 05:21:29;;;;;;;48.05;11.43;;;;;;;;;;5012960;28;20484;-77
2023/12/12 05:23:56;;;;;;;51.70;11.93;;;;;;;;;;5011870;28;20203;-77
2023/12/12 05:26:22;;;;;;;49.53;11.88;;;;;;;;;;5023049;28;20396;-80
2023/12/12 05:28:48;;;;;;;52.40;12.68;;;;;;;;;;5015038;28;20014;-73
2023/12/12 05:31:14;;;;;;;55.45;12.40;;;;;;;;;;5005747;28;20018;-76
2023/12/12 05:33:40;;;;;;;54.95;12.32;;;;;;;;;;5010432;28;20514;-76
2023/12/12 05:36:07;;;;;;;54.03;12.07;;;;;;;;;;5012450;28;20025;-76
2023/12/12 05:38:33;;;;;;;44.78;10.90;;;;;;;;;;5002123;28;20077;-76
2023/12/12 05:40:59;;;;;;;46.40;11.30;;;;;;;;;;5011730;28;20014;-76
2023/12/12 05:43:25;;;;;;;41.63;10.80;;;;;;;;;;5011510;28;20022;-75
2023/12/12 05:45:51;;;;;;;37.72;11.00;;;;;;;;;;5011039;28;20026;-75
2023/12/12 05:48:17;;;;;;;44.65;10.48;;;;;;;;;;5011822;28;20014;-77
2023/12/12 05:50:43;;;;;;;48.47;11.45;;;;;;;;;;5029003;28;20013;-75
2023/12/12 05:53:10;;;;;;;55.95;11.45;;;;;;;;;;5009179;28;20068;-76
2023/12/12 05:55:36;;;;;;;56.22;11.82;;;;;;;;;;5028528;28;20018;-76
2023/12/12 05:58:04;;;;;;;55.80;12.70;;;;;;;;;;5028551;28;20071;-75
2023/12/12 06:00:30;;;;;;;62.35;12.65;;;;;;;;;;5022180;28;20470;-75
2023/12/12 06:02:56;;;;;;;64.15;13.90;;;;;;;;;;5026358;28;20052;-75
2023/12/12 06:05:22;;;;;;;68.10;14.23;;;;;;;;;;5031293;28;20546;-75
2023/12/12 06:07:48;;;;;;;86.78;16.27;;;;;;;;;;5015233;28;20022;-75
2023/12/12 06:10:14;;;;;;;70.30;15.45;;;;;;;;;;5009863;28;20024;-75
2023/12/12 06:12:40;;;;;;;77.72;16.95;;;;;;;;;;5023405;28;20458;-75
2023/12/12 06:15:07;;;;;;;77.50;16.73;;;;;;;;;;5029823;28;20013;-75
2023/12/12 06:17:34;;;;;;;92.05;18.05;;;;;;;;;;5016902;28;20099;-75
2023/12/12 06:20:00;;;;;;;92.82;17.45;;;;;;;;;;5009173;28;20025;-75
2023/12/12 06:22:26;;;;;;;96.50;18.98;;;;;;;;;;5019954;28;20098;-76
2023/12/12 06:24:53;;;;;;;92.88;18.75;;;;;;;;;;5028857;28;20172;-76
2023/12/12 06:27:19;;;;;;;98.40;18.98;;;;;;;;;;5020426;28;20237;-75
2023/12/12 06:29:46;;;;;;;105.10;19.77;;;;;;;;;;5010468;28;20010;-76
2023/12/12 06:32:12;;;;;;;94.00;19.08;;;;;;;;;;5016948;28;20377;-75
2023/12/12 06:34:38;;;;;;;106.47;20.33;;;;;;;;;;5029469;28;20458;-76
2023/12/12 06:37:05;;;;;;;100.97;19.77;;;;;;;;;;5023828;28;20089;-76
2023/12/12 06:39:31;;;;;;;99.93;20.25;;;;;;;;;;5009859;28;20014;-76
2023/12/12 06:41:58;;;;;;;116.50;20.85;;;;;;;;;;5015651;28;20045;-77
2023/12/12 06:44:24;;;;;;;99.18;20.90;;;;;;;;;;5030645;28;20016;-76
2023/12/12 06:46:50;;;;;;;117.85;20.48;;;;;;;;;;5027550;28;20030;-75
2023/12/12 06:49:16;;;;;;;99.90;19.73;;;;;;;;;;5009628;28;20040;-76
2023/12/12 06:51:42;;;;;;;116.78;20.23;;;;;;;;;;5012490;28;20181;-75
2023/12/12 06:54:08;;;;;;;114.55;19.58;;;;;;;;;;5030954;28;20017;-84
2023/12/12 06:56:34;;;;;;;117.30;20.33;;;;;;;;;;5031780;28;20021;-84
2023/12/12 06:59:00;;;;;;;113.75;20.67;;;;;;;;;;4999578;28;20050;-76
2023/12/12 07:01:26;;;;;;;106.53;20.23;;;;;;;;;;5010172;28;20109;-76
2023/12/12 07:03:52;;;;;;;118.50;21.17;;;;;;;;;;5044110;28;20109;-76
2023/12/12 07:06:18;;;;;;;117.07;20.85;;;;;;;;;;5028912;28;20033;-76
2023/12/12 07:08:45;;;;;;;102.20;19.92;;;;;;;;;;5012186;28;20482;-76
2023/12/12 07:11:11;;;;;;;100.88;19.50;;;;;;;;;;5006734;28;20089;-76
2023/12/12 07:13:38;;;;;;;110.15;20.08;;;;;;;;;;5035322;28;20410;-76
2023/12/12 07:16:05;;;;;;;101.75;19.73;;;;;;;;;;5027058;28;20488;-76
2023/12/12 07:18:31;;;;;;;111.63;20.42;;;;;;;;;;5013830;28;20026;-76
2023/12/12 07:21:00;;;;;;;96.13;19.15;;;;;;;;;;5007799;28;20013;-76
2023/12/12 07:23:26;;;;;;;110.43;20.25;;;;;;;;;;5020898;28;20025;-76
2023/12/12 07:25:52;;;;;;;107.28;21.40;;;;;;;;;;5028086;28;20025;-76
2023/12/12 07:28:18;;;;;;;111.30;21.02;;;;;;;;;;5016491;28;20021;-76
2023/12/12 07:30:44;;;;;;;106.57;19.85;;;;;;;;;;5008305;28;20060;-76
2023/12/12 07:33:11;;;;;;;109.18;20.75;;;;;;;;;;5019620;28;20018;-76
2023/12/12 07:35:37;;;;;;;86.85;19.73;;;;;;;;;;5028212;28;20104;-76
2023/12/12 07:38:03;;;;;;;86.13;18.10;;;;;;;;;;5019385;28;20072;-76
2023/12/12 07:40:30;;;;;;;84.53;18.90;;;;;;;;;;5008409;28;20474;-76
2023/12/12 07:42:56;;;;;;;84.88;18.42;;;;;;;;;;5016858;28;20045;-76
2023/12/12 07:45:23;;;;;;;93.13;18.95;;;;;;;;;;5029170;28;20440;-76
2023/12/12 07:47:49;;;;;;;78.97;18.95;;;;;;;;;;5022891;28;20474;-76
2023/12/12 07:50:17;;;;;;;72.88;18.15;;;;;;;;;;5009265;28;20045;-76
2023/12/12 07:52:43;;;;;;;81.57;19.33;;;;;;;;;;5013315;28;20156;-76
2023/12/12 07:55:09;;;;;;;77.55;19.55;;;;;;;;;;5027724;28;20577;-76
2023/12/12 07:57:36;;;;;;;85.90;19.00;;;;;;;;;;5015589;28;20129;-76
2023/12/12 08:00:05;;;;;;;75.07;19.00;;;;;;;;;;5009305;28;20026;-76
2023/12/12 08:02:32;;;;;;;67.57;18.27;;;;;;;;;;5024757;28;20022;-76
2023/12/12 08:04:58;;;;;;;81.80;19.33;;;;;;;;;;5029541;28;20037;-76
2023/12/12 08:07:24;;;;;;;67.03;19.10;;;;;;;;;;5001768;28;20029;-76
2023/12/12 08:09:50;;;;;;;122.88;22.02;;;;;;;;;;5009700;28;20010;-75
2023/12/12 08:12:16;;;;;;;113.22;19.33;;;;;;;;;;5006031;28;20022;-76
2023/12/12 08:14:42;;;;;;;330.63;27.90;;;;;;;;;;5009104;28;20025;-76
2023/12/12 08:17:08;;;;;;;121.50;19.63;;;;;;;;;;5005158;28;20432;-75
2023/12/12 08:19:35;;;;;;;135.40;19.52;;;;;;;;;;5008692;28;20481;-76
2023/12/12 08:22:01;;;;;;;104.05;17.55;;;;;;;;;;5007653;28;20067;-76
2023/12/12 08:24:27;;;;;;;99.30;18.73;;;;;;;;;;5007344;28;20014;-76
2023/12/12 08:26:54;;;;;;;125.53;19.77;;;;;;;;;;5006460;28;20037;-76
2023/12/12 08:29:20;;;;;;;141.43;20.25;;;;;;;;;;5007227;28;20049;-76
2023/12/12 08:31:46;;;;;;;219.13;23.02;;;;;;;;;;5006667;28;20018;-76
2023/12/12 08:34:12;;;;;;;274.00;24.42;;;;;;;;;;5007189;28;20370;-76
2023/12/12 08:36:38;;;;;;;400.10;29.52;;;;;;;;;;5006201;28;20025;-75
2023/12/12 08:39:04;;;;;;;249.27;24.58;;;;;;;;;;5007451;28;20018;-79
2023/12/12 08:41:33;;;;;;;275.98;25.40;;;;;;;;;;5008194;28;20025;-74
2023/12/12 08:43:59;;;;;;;284.02;26.30;;;;;;;;;;5008925;28;20037;-75
2023/12/12 08:46:28;;;;;;;147.35;21.17;;;;;;;;;;5006643;28;20026;-75
2023/12/12 08:48:55;;;;;;;210.82;24.42;;;;;;;;;;5007834;28;20018;-75
2023/12/12 08:51:22;;;;;;;193.85;22.92;;;;;;;;;;5006122;28;20022;-75
2023/12/12 08:53:48;;;;;;;170.52;22.55;;;;;;;;;;5008358;28;20037;-75
2023/12/12 08:56:16;;;;;;;103.18;19.90;;;;;;;;;;5006751;28;20025;-75
2023/12/12 08:58:42;;;;;;;111.88;21.75;;;;;;;;;;5005312;28;20386;-76
2023/12/12 09:01:08;;;;;;;89.10;21.75;;;;;;;;;;5018495;28;20022;-75
2023/12/12 09:03:34;;;;;;;96.10;23.27;;;;;;;;;;4989634;28;20015;-75
2023/12/12 09:06:00;;;;;;;93.10;23.88;;;;;;;;;;5013143;28;20030;-75
2023/12/12 09:08:26;;;;;;;96.30;25.60;;;;;;;;;;5006157;28;20010;-75
2023/12/12 09:10:52;;;;;;;102.90;26.52;;;;;;;;;;5024469;28;20664;-75
2023/12/12 09:13:19;;;;;;;103.65;26.90;;;;;;;;;;5026178;28;20091;-75
2023/12/12 09:15:45;;;;;;;98.82;27.83;;;;;;;;;;5010462;28;20156;-75
2023/12/12 09:18:11;;;;;;;103.15;27.02;;;;;;;;;;5008253;28;20026;-75
2023/12/12 09:20:37;;;;;;;95.53;26.92;;;;;;;;;;5021256;28;20024;-75
2023/12/12 09:23:03;;;;;;;133.00;29.55;;;;;;;;;;5026339;28;20022;-75
2023/12/12 09:25:29;;;;;;;154.45;31.00;;;;;;;;;;5010879;28;20038;-76
2023/12/12 09:27:55;;;;;;;284.60;34.60;;;;;;;;;;5003214;28;20506;-75
2023/12/12 09:30:21;;;;;;;228.32;32.08;;;;;;;;;;5000304;28;20501;-75
2023/12/12 09:32:48;;;;;;;192.73;30.73;;;;;;;;;;5023095;28;20053;-75
2023/12/12 09:35:14;;;;;;;163.13;29.40;;;;;;;;;;5033642;28;20045;-75
2023/12/12 09:37:40;;;;;;;287.08;34.60;;;;;;;;;;5026827;28;20100;-76
2023/12/12 09:40:06;;;;;;;296.48;35.42;;;;;;;;;;5015605;28;20037;-75
2023/12/12 09:42:35;;;;;;;189.30;27.55;;;;;;;;;;5018944;28;20026;-75
2023/12/12 09:45:03;;;;;;;147.65;25.27;;;;;;;;;;5015774;28;20051;-75
2023/12/12 09:47:31;;;;;;;173.45;27.35;;;;;;;;;;5004472;28;20068;-75
2023/12/12 09:50:00;;;;;;;106.30;24.30;;;;;;;;;;5001503;28;20012;-75
2023/12/12 09:52:29;;;;;;;173.52;26.50;;;;;;;;;;5025452;28;20056;-75
2023/12/12 09:54:56;;;;;;;234.52;31.88;;;;;;;;;;5008943;28;20473;-75
2023/12/12 09:57:22;;;;;;;141.13;25.60;;;;;;;;;;5008741;28;20018;-75
2023/12/12 09:59:48;;;;;;;217.77;30.38;;;;;;;;;;5010592;28;20045;-75
2023/12/12 10:02:19;;;;;;;258.40;32.83;;;;;;;;;;5009454;28;20026;-75
2023/12/12 10:04:45;;;;;;;134.68;24.33;;;;;;;;;;5011413;28;20350;-75
2023/12/12 10:07:14;;;;;;;189.15;28.55;;;;;;;;;;5011242;28;20006;-75
2023/12/12 10:09:40;;;;;;;275.63;34.67;;;;;;;;;;5010886;28;20481;-76
2023/12/12 10:12:06;;;;;;;174.43;29.35;;;;;;;;;;5010732;28;20018;-75
2023/12/12 10:14:44;;;;;;;243.88;34.35;;;;;;;;;;5011823;28;20045;-76
2023/12/12 10:17:11;;;;;;;204.35;34.72;;;;;;;;;;5030397;28;20356;-75
2023/12/12 10:19:38;;;;;;;210.85;32.65;;;;;;;;;;5029604;28;20306;-75
2023/12/12 10:22:10;;;;;;;157.68;32.53;;;;;;;;;;5010314;28;20014;-76
2023/12/12 10:24:37;;;;;;;143.25;30.38;;;;;;;;;;5013047;28;20017;-76
2023/12/12 10:27:04;;;;;;;211.35;37.40;;;;;;;;;;5030151;28;20060;-75
2023/12/12 10:29:33;;;;;;;139.80;35.85;;;;;;;;;;5012587;28;20029;-76
2023/12/12 10:31:59;;;;;;;155.52;37.58;;;;;;;;;;5010122;28;20030;-75
2023/12/12 10:34:30;;;;;;;149.68;38.60;;;;;;;;;;5010242;28;20014;-75
2023/12/12 10:36:58;;;;;;;141.40;38.70;;;;;;;;;;5012192;28;20010;-75
2023/12/12 10:39:30;;;;;;;144.82;38.33;;;;;;;;;;5024066;28;20367;-75
2023/12/12 10:41:56;;;;;;;133.68;37.40;;;;;;;;;;5012851;28;20017;-75
2023/12/12 10:44:30;;;;;;;138.85;40.22;;;;;;;;;;5009264;28;20225;-75
2023/12/12 10:46:56;;;;;;;144.82;40.28;;;;;;;;;;5008658;28;20030;-76
2023/12/12 10:49:24;;;;;;;132.30;38.35;;;;;;;;;;5009324;28;20022;-75
2023/12/12 10:51:50;;;;;;;138.77;38.15;;;;;;;;;;5012189;28;20018;-76
2023/12/12 10:54:17;;;;;;;140.15;39.70;;;;;;;;;;5009544;28;20026;-75
2023/12/12 10:56:46;;;;;;;118.57;37.20;;;;;;;;;;5009078;28;20024;-75
2023/12/12 10:59:15;;;;;;;122.40;37.28;;;;;;;;;;5008948;28;20494;-75
2023/12/12 11:01:41;;;;;;;127.05;36.38;;;;;;;;;;5011042;28;20033;-76
2023/12/12 11:04:07;;;;;;;122.97;36.08;;;;;;;;;;5009883;28;20017;-75
2023/12/12 11:06:33;;;;;;;121.75;34.63;;;;;;;;;;5019340;28;20041;-75
2023/12/12 11:08:59;;;;;;;117.72;34.15;;;;;;;;;;5015824;28;20105;-76
2023/12/12 11:11:26;;;;;;;114.15;34.42;;;;;;;;;;5020985;28;20474;-75
2023/12/12 11:13:52;;;;;;;111.60;36.67;;;;;;;;;;5009089;28;20378;-76
2023/12/12 11:16:18;;;;;;;101.43;31.58;;;;;;;;;;5009926;28;20044;-76
2023/12/12 11:18:46;;;;;;;105.38;33.38;;;;;;;;;;5012397;28;20079;-83
2023/12/12 11:21:38;;;;;;;88.15;29.75;;;;;;;;;;5012410;28;20018;-77
2023/12/12 11:24:04;;;;;;;96.25;31.38;;;;;;;;;;5021877;28;20030;-77
2023/12/12 11:26:31;;;;;;;95.20;30.02;;;;;;;;;;5017558;28;20032;-77
2023/12/12 11:28:57;;;;;;;76.90;27.63;;;;;;;;;;5014254;28;20378;-77
2023/12/12 11:31:27;;;;;;;80.43;27.92;;;;;;;;;;5013407;28;20022;-77
2023/12/12 11:34:05;;;;;;;91.43;30.23;;;;;;;;;;5040636;28;20421;-77
2023/12/12 11:36:51;;;;;;;88.93;29.42;;;;;;;;;;5029817;28;20029;-77
2023/12/12 11:39:40;;;;;;;80.30;30.27;;;;;;;;;;5019898;28;20048;-77
2023/12/12 11:42:16;;;;;;;81.63;27.98;;;;;;;;;;5005731;28;20506;-77
2023/12/12 11:44:43;;;;;;;91.25;32.03;;;;;;;;;;5019461;28;20005;-77
2023/12/12 11:47:16;;;;;;;81.05;28.42;;;;;;;;;;5023243;28;20049;-77
2023/12/12 11:49:43;;;;;;;80.53;27.98;;;;;;;;;;5012721;28;20016;-76
2023/12/12 11:52:10;;;;;;;76.63;27.75;;;;;;;;;;5020633;28;20059;-77
2023/12/12 11:54:38;;;;;;;86.55;27.73;;;;;;;;;;5019145;28;20093;-77
2023/12/12 11:57:04;;;;;;;85.22;29.88;;;;;;;;;;5028528;28;20030;-77
2023/12/12 11:59:33;;;;;;;91.28;30.00;;;;;;;;;;5016228;28;20022;-77
2023/12/12 12:01:59;;;;;;;90.38;29.30;;;;;;;;;;5013618;28;20018;-77
2023/12/12 12:04:26;;;;;;;76.85;26.90;;;;;;;;;;5013523;28;20524;-77
2023/12/12 12:06:53;;;;;;;77.40;27.20;;;;;;;;;;5022235;28;20058;-77
2023/12/12 12:09:19;;;;;;;85.90;27.83;;;;;;;;;;5021982;28;20010;-77
2023/12/12 12:11:51;;;;;;;78.88;26.90;;;;;;;;;;5013896;28;20018;-77
2023/12/12 12:14:21;;;;;;;75.95;27.02;;;;;;;;;;5008271;28;20010;-77
2023/12/12 12:16:47;;;;;;;;;;;;;;;;;;5020553;28;20056;-80
2023/12/12 12:19:29;;;;;;;73.72;25.70;;;;;;;;;;5040434;28;19910;-76
2023/12/12 12:21:55;;;;;;;75.97;27.27;;;;;;;;;;5012410;28;20060;-76
2023/12/12 12:24:22;;;;;;;78.85;25.77;;;;;;;;;;5007890;28;20462;-77
2023/12/12 12:26:48;;;;;;;71.53;23.60;;;;;;;;;;5008080;28;20033;-76
2023/12/12 12:29:14;;;;;;;76.15;25.42;;;;;;;;;;5012611;28;20045;-76
2023/12/12 12:31:40;;;;;;;74.93;24.70;;;;;;;;;;5012125;28;20045;-76
2023/12/12 12:34:19;;;;;;;77.93;26.70;;;;;;;;;;5015226;28;20044;-76
2023/12/12 12:36:49;;;;;;;72.30;23.65;;;;;;;;;;5022139;28;20439;-76
2023/12/12 12:39:19;;;;;;;74.97;24.50;;;;;;;;;;5009258;28;20064;-76
2023/12/12 12:41:48;;;;;;;68.20;22.90;;;;;;;;;;5009794;28;20446;-76
2023/12/12 12:44:14;;;;;;;81.07;25.25;;;;;;;;;;5007724;28;20378;-76
2023/12/12 12:46:53;;;;;;;75.30;24.88;;;;;;;;;;5020817;28;20033;-77
2023/12/12 12:49:19;;;;;;;68.30;24.60;;;;;;;;;;5023384;28;20034;-76
2023/12/12 12:51:47;;;;;;;62.05;22.58;;;;;;;;;;5008068;28;20506;-76
2023/12/12 12:54:13;;;;;;;60.42;22.25;;;;;;;;;;5008425;28;20068;-76
2023/12/12 12:56:41;;;;;;;60.58;22.05;;;;;;;;;;5009240;28;20097;-76
2023/12/12 12:59:07;;;;;;;54.05;20.40;;;;;;;;;;5027227;28;20021;-76
2023/12/12 13:01:33;;;;;;;63.40;20.35;;;;;;;;;;5010918;28;20032;-76
2023/12/12 13:03:59;;;;;;;74.07;24.02;;;;;;;;;;5026668;28;20401;-76
2023/12/12 13:06:26;;;;;;;62.67;22.23;;;;;;;;;;5018410;28;20088;-76
2023/12/12 13:08:52;;;;;;;69.82;21.88;;;;;;;;;;5013875;28;20018;-76
2023/12/12 13:11:18;;;;;;;71.47;23.70;;;;;;;;;;5004875;28;20024;-76
2023/12/12 13:13:46;;;;;;;57.92;20.00;;;;;;;;;;5017770;28;20010;-76
2023/12/12 13:16:12;;;;;;;69.97;23.38;;;;;;;;;;5018965;28;20081;-76
2023/12/12 13:18:38;;;;;;;75.72;21.85;;;;;;;;;;5014831;28;20053;-76
2023/12/12 13:21:04;;;;;;;68.65;21.40;;;;;;;;;;5027544;28;20024;-76
2023/12/12 13:23:30;;;;;;;66.63;21.75;;;;;;;;;;5035425;28;20387;-76
2023/12/12 13:25:56;;;;;;;71.65;22.42;;;;;;;;;;5027327;28;20036;-76
2023/12/12 13:28:22;;;;;;;61.55;20.92;;;;;;;;;;5019483;28;20017;-76
2023/12/12 13:30:48;;;;;;;63.20;19.85;;;;;;;;;;5010641;28;20018;-76
2023/12/12 13:33:14;;;;;;;65.93;19.58;;;;;;;;;;5019405;28;20080;-76
2023/12/12 13:35:41;;;;;;;57.00;19.45;;;;;;;;;;5030854;28;20489;-76
2023/12/12 13:38:07;;;;;;;57.55;20.30;;;;;;;;;;5024987;28;20014;-76
2023/12/12 13:40:33;;;;;;;57.47;19.02;;;;;;;;;;5011464;28;20573;-76
2023/12/12 13:42:59;;;;;;;57.25;21.42;;;;;;;;;;5017568;28;20021;-76
2023/12/12 13:45:25;;;;;;;63.55;22.20;;;;;;;;;;5030923;28;20057;-76
2023/12/12 13:47:51;;;;;;;60.15;21.20;;;;;;;;;;5029238;28;20104;-76
2023/12/12 13:50:17;;;;;;;59.13;19.98;;;;;;;;;;5010773;28;20481;-76
2023/12/12 13:52:45;;;;;;;47.72;17.35;;;;;;;;;;5014455;28;20468;-76
2023/12/12 13:55:11;;;;;;;62.83;20.42;;;;;;;;;;5030865;28;20014;-76
2023/12/12 13:57:37;;;;;;;58.60;21.27;;;;;;;;;;5030616;28;20462;-76
2023/12/12 14:00:04;;;;;;;54.25;17.52;;;;;;;;;;5012102;28;20032;-76
2023/12/12 14:02:31;;;;;;;63.35;19.48;;;;;;;;;;5027662;28;20018;-76
2023/12/12 14:05:01;;;;;;;56.42;18.75;;;;;;;;;;5030637;28;20036;-76
2023/12/12 14:07:27;;;;;;;49.90;18.17;;;;;;;;;;5030753;28;20487;-76
2023/12/12 14:09:53;;;;;;;64.47;21.13;;;;;;;;;;5011388;28;20239;-76
2023/12/12 14:12:19;;;;;;;60.95;19.90;;;;;;;;;;5010313;28;20017;-76
2023/12/12 14:14:45;;;;;;;46.45;17.15;;;;;;;;;;5012187;28;20405;-76
2023/12/12 14:17:11;;;;;;;58.70;19.45;;;;;;;;;;5011537;28;20065;-76
2023/12/12 14:19:37;;;;;;;56.10;17.98;;;;;;;;;;5026860;28;20040;-76